Saturday, December 15, 2018, 1:44 PM GMT
Back to Local

CYYY, Mont Joli, Que.

Location: , , Canada Lat: 48.6
Local Time: 1:44 PM GMT (13:44 GMT) Lon: -68.217
Time Zone: GMT Elev: 157 ft

Show me the last for .
Show Coded

Time T Td Feel RH Dir Speed Gust Alt SLP Vis Weather Sky Remarks
2018-12-15 13:00 34 28 26 80 240° 10 - 29.96 29.97 15 OVC040 None
2018-12-15 12:00 34 28 25 80 240° 13 - 29.93 29.94 15 OVC045 None
2018-12-15 11:00 34 28 24 80 250° 15 - 29.92 29.93 15 OVC040 None
2018-12-15 10:32 34 30 24 86 250° 16 - 29.91 29.92 15 OVC036 None
2018-12-15 10:00 34 30 25 86 240° 12 - 29.91 29.92 15 -SN FEW010 OVC035 None
2018-12-15 09:28 34 30 26 86 250° 9 - 29.90 29.91 15 -SN SCT010 OVC030 None
2018-12-15 09:00 34 30 27 86 240° 8 - 29.89 29.90 15 FEW011 OVC040 None
2018-12-15 08:00 34 32 23 93 220° 12 17 29.89 29.90 15 SCT027 OVC050 None
2018-12-15 07:38 34 32 25 93 230° 12 - 29.90 29.91 15 FEW010 OVC030 None
2018-12-15 07:00 34 30 26 86 240° 9 - 29.90 29.91 15 -SN SCT011 OVC030 None
2018-12-15 06:00 34 30 28 86 250° 7 - 29.91 29.92 6 -SN OVC012 None
2018-12-15 05:00 34 30 26 86 220° 10 - 29.91 29.92 15 -SN OVC015 None
2018-12-15 04:00 34 28 22 80 210° 13 23 29.93 29.94 15 -SN BKN018 OVC035 None
2018-12-15 03:00 34 28 22 80 210° 14 21 29.96 29.97 15 -SN OVC017 Pressure falling rapidly
2018-12-15 02:46 34 28 22 80 220° 14 23 29.97 29.98 15 -SN OVC016 None
2018-12-15 02:00 34 28 22 80 210° 16 23 29.99 30.01 15 FEW017 OVC040 None
2018-12-15 01:00 34 28 21 80 220° 17 25 30.02 30.03 15 BKN050 OVC070 None
2018-12-15 00:27 34 28 20 80 210° 18 29 30.03 30.04 15 SCT050 OVC070 None
2018-12-15 00:00 34 28 21 80 210° 18 25 30.04 30.05 15 -SN SCT055 OVC090 None
2018-12-14 23:00 34 27 21 74 210° 16 28 30.05 30.07 10 -SN OVC052 None
2018-12-14 22:00 34 28 20 80 210° 20 31 30.08 30.10 5 -SN OVC029 None
2018-12-14 21:32 34 27 22 74 210° 15 22 30.09 30.10 6 -SN OVC041 None
2018-12-14 21:00 34 27 22 74 210° 16 23 30.10 30.11 10 OVC041 None
2018-12-14 20:00 32 27 20 80 220° 13 21 30.14 30.15 10 OVC049 None
2018-12-14 19:00 32 25 24 74 210° 9 - 30.16 30.17 10 OVC046 None
2018-12-14 18:00 32 23 20 68 200° 13 20 30.18 30.20 10 OVC045 None
2018-12-14 17:00 32 23 23 68 190° 13 - 30.20 30.21 10 OVC033 None
2018-12-14 16:00 28 21 19 74 190° 10 - 30.25 30.27 15 OVC025 None
2018-12-14 15:00 25 16 15 68 230° 10 - 30.32 30.34 15 OVC026 None
2018-12-14 14:00 25 16 18 68 220° 6 - 30.33 30.34 15 OVC023 None

Support USWX by starting your Amazon purchase here.